Time;durP1;ratioP1;P1;durP2;ratioP2;P2;SDS_P1;SDS_P2;PMS_P1;PMS_P2;Temp;Humidity;BMP_temperature;BMP_pressure;BME280_temperature;BME280_humidity;BME280_pressure;Samples;Min_cycle;Max_cycle;Signal;HPM_P1;HPM_P2
2021/06/21 00:00:02;;;;;;;5.10;1.50;;;;;;;;;;5014008;28;20485;-62
2021/06/21 00:02:29;;;;;;;5.83;1.53;;;;;;;;;;5014155;28;20457;-62
2021/06/21 00:04:58;;;;;;;6.80;1.70;;;;;;;;;;5014063;28;20482;-62
2021/06/21 00:07:25;;;;;;;2.93;1.23;;;;;;;;;;5018436;28;20926;-61
2021/06/21 00:09:52;;;;;;;8.23;2.00;;;;;;;;;;5033764;28;20471;-62
2021/06/21 00:12:19;;;;;;;3.50;1.37;;;;;;;;;;5033610;28;20453;-61
2021/06/21 00:14:47;;;;;;;6.50;1.50;;;;;;;;;;5033336;28;20932;-61
2021/06/21 00:17:16;;;;;;;5.80;1.80;;;;;;;;;;5031210;28;20849;-62
2021/06/21 00:19:43;;;;;;;6.40;1.60;;;;;;;;;;5033050;28;20504;-61
2021/06/21 00:22:11;;;;;;;2.40;1.37;;;;;;;;;;5033499;28;20449;-61
2021/06/21 00:24:38;;;;;;;4.77;2.00;;;;;;;;;;5033257;28;20480;-62
2021/06/21 00:27:06;;;;;;;4.03;1.30;;;;;;;;;;5032555;28;20467;-61
2021/06/21 00:29:33;;;;;;;3.17;1.20;;;;;;;;;;5033203;28;20485;-62
2021/06/21 00:32:00;;;;;;;2.70;1.40;;;;;;;;;;5033010;28;20456;-61
2021/06/21 00:34:27;;;;;;;3.63;1.13;;;;;;;;;;5026441;28;20463;-61
2021/06/21 00:36:54;;;;;;;5.10;1.20;;;;;;;;;;5032582;28;20449;-62
2021/06/21 00:39:23;;;;;;;3.30;1.33;;;;;;;;;;5032748;28;21006;-61
2021/06/21 00:41:50;;;;;;;4.50;1.57;;;;;;;;;;5032958;28;20448;-61
2021/06/21 00:44:17;;;;;;;4.70;1.60;;;;;;;;;;5033295;28;20452;-62
2021/06/21 00:46:45;;;;;;;2.40;1.00;;;;;;;;;;5032225;28;20855;-61
2021/06/21 00:49:12;;;;;;;2.50;1.33;;;;;;;;;;5032722;28;20504;-61
2021/06/21 00:51:40;;;;;;;2.50;1.23;;;;;;;;;;5032844;28;20453;-62
2021/06/21 00:54:07;;;;;;;3.07;1.60;;;;;;;;;;5032538;28;20543;-62
2021/06/21 00:56:35;;;;;;;3.90;1.60;;;;;;;;;;5032198;28;20445;-61
2021/06/21 00:59:03;;;;;;;3.83;1.20;;;;;;;;;;5032409;28;20452;-61
2021/06/21 01:01:31;;;;;;;3.37;1.33;;;;;;;;;;5032975;28;20456;-61
2021/06/21 01:03:59;;;;;;;2.73;1.70;;;;;;;;;;5032899;28;20457;-61
2021/06/21 01:06:27;;;;;;;1.67;1.10;;;;;;;;;;5031756;28;20566;-62
2021/06/21 01:08:54;;;;;;;1.73;1.23;;;;;;;;;;5032143;28;20503;-62
2021/06/21 01:11:23;;;;;;;3.10;1.40;;;;;;;;;;5032560;28;20459;-62
2021/06/21 01:14:02;;;;;;;2.80;1.50;;;;;;;;;;5032623;28;20677;-62
2021/06/21 01:16:32;;;;;;;3.33;1.57;;;;;;;;;;5031556;28;20972;-61
2021/06/21 01:19:03;;;;;;;4.30;1.60;;;;;;;;;;5032171;28;20921;-61
2021/06/21 01:21:49;;;;;;;4.20;1.50;;;;;;;;;;5032630;28;20436;-61
2021/06/21 01:24:34;;;;;;;3.37;1.67;;;;;;;;;;5031922;28;21116;-61
2021/06/21 01:27:09;;;;;;;4.40;1.57;;;;;;;;;;5030996;28;20511;-61
2021/06/21 01:29:47;;;;;;;3.17;1.47;;;;;;;;;;5032144;28;20583;-61
2021/06/21 01:32:16;;;;;;;3.60;1.70;;;;;;;;;;5031738;28;20955;-61
2021/06/21 01:34:46;;;;;;;3.77;1.60;;;;;;;;;;5032486;28;20453;-62
2021/06/21 01:37:14;;;;;;;4.40;2.10;;;;;;;;;;5031429;28;20452;-60
2021/06/21 01:39:41;;;;;;;5.40;1.80;;;;;;;;;;5032055;28;20480;-62
2021/06/21 01:42:10;;;;;;;3.20;1.70;;;;;;;;;;5032229;28;20452;-62
2021/06/21 01:44:40;;;;;;;4.37;1.53;;;;;;;;;;5030348;28;20463;-61
2021/06/21 01:47:07;;;;;;;2.47;1.40;;;;;;;;;;5030813;28;21019;-62
2021/06/21 01:49:37;;;;;;;3.20;1.80;;;;;;;;;;5032047;28;20815;-62
2021/06/21 01:52:06;;;;;;;2.40;1.60;;;;;;;;;;5031277;28;20445;-62
2021/06/21 01:54:34;;;;;;;4.43;1.67;;;;;;;;;;5031926;28;20456;-61
2021/06/21 01:57:03;;;;;;;3.27;1.30;;;;;;;;;;5030822;28;20448;-61
2021/06/21 01:59:30;;;;;;;4.73;1.60;;;;;;;;;;5031436;28;20515;-61
2021/06/21 02:01:59;;;;;;;6.10;1.50;;;;;;;;;;5031485;28;20795;-60
2021/06/21 02:04:27;;;;;;;2.93;1.80;;;;;;;;;;5032066;28;20441;-61
2021/06/21 02:06:55;;;;;;;4.13;1.40;;;;;;;;;;5030785;28;20484;-61
2021/06/21 02:09:24;;;;;;;5.40;1.87;;;;;;;;;;5031581;28;20831;-61
2021/06/21 02:11:52;;;;;;;2.27;1.50;;;;;;;;;;5048618;28;20458;-61
2021/06/21 02:14:20;;;;;;;3.50;1.40;;;;;;;;;;5046077;28;20463;-61
2021/06/21 02:16:48;;;;;;;3.27;1.50;;;;;;;;;;5031294;28;20444;-62
2021/06/21 02:19:15;;;;;;;3.13;1.50;;;;;;;;;;5031297;28;20472;-62
2021/06/21 02:21:43;;;;;;;3.07;1.60;;;;;;;;;;5031575;28;20805;-62
2021/06/21 02:24:11;;;;;;;8.67;2.70;;;;;;;;;;5031484;28;20944;-61
2021/06/21 02:26:39;;;;;;;3.43;1.80;;;;;;;;;;5030147;28;20477;-61
2021/06/21 02:29:06;;;;;;;4.40;2.00;;;;;;;;;;5031444;28;20448;-61
2021/06/21 02:31:34;;;;;;;4.20;1.93;;;;;;;;;;5027889;28;20458;-62
2021/06/21 02:34:02;;;;;;;4.13;1.50;;;;;;;;;;5011996;28;20454;-62
2021/06/21 02:36:29;;;;;;;4.17;1.90;;;;;;;;;;5010942;28;20450;-61
2021/06/21 02:38:59;;;;;;;6.30;2.03;;;;;;;;;;5020525;28;20452;-62
2021/06/21 02:41:26;;;;;;;6.13;1.80;;;;;;;;;;5031200;28;20475;-61
2021/06/21 02:43:54;;;;;;;4.23;2.47;;;;;;;;;;5031541;28;20444;-61
2021/06/21 02:46:21;;;;;;;4.20;1.70;;;;;;;;;;5030084;28;20484;-61
2021/06/21 02:48:48;;;;;;;2.60;1.73;;;;;;;;;;5026058;28;20457;-60
2021/06/21 02:51:17;;;;;;;4.47;1.73;;;;;;;;;;5031163;28;20451;-61
2021/06/21 02:53:47;;;;;;;3.73;1.80;;;;;;;;;;5031045;28;20455;-61
2021/06/21 02:56:18;;;;;;;3.30;1.90;;;;;;;;;;5030523;28;20451;-61
2021/06/21 02:58:46;;;;;;;3.80;1.43;;;;;;;;;;5031494;28;20436;-61
2021/06/21 03:01:15;;;;;;;4.13;1.67;;;;;;;;;;5030866;28;20472;-61
2021/06/21 03:03:46;;;;;;;2.87;1.77;;;;;;;;;;5029504;28;20536;-61
2021/06/21 03:06:14;;;;;;;2.83;1.93;;;;;;;;;;5032857;28;20468;-61
2021/06/21 03:08:41;;;;;;;5.60;1.67;;;;;;;;;;5035542;28;20562;-63
2021/06/21 03:11:09;;;;;;;12.57;2.30;;;;;;;;;;5036099;28;20555;-63
2021/06/21 03:13:37;;;;;;;6.40;2.13;;;;;;;;;;5036944;28;20440;-63
2021/06/21 03:16:04;;;;;;;11.03;2.13;;;;;;;;;;5036248;28;20517;-62
2021/06/21 03:18:33;;;;;;;5.60;2.50;;;;;;;;;;5036109;28;20445;-61
2021/06/21 03:21:00;;;;;;;5.80;2.20;;;;;;;;;;5037265;28;20479;-62
2021/06/21 03:23:28;;;;;;;5.00;2.30;;;;;;;;;;5020871;28;20455;-62
2021/06/21 03:25:57;;;;;;;4.27;1.70;;;;;;;;;;5014307;28;20491;-62
2021/06/21 03:28:24;;;;;;;4.13;1.67;;;;;;;;;;5014570;28;20465;-62
2021/06/21 03:30:52;;;;;;;3.77;1.70;;;;;;;;;;5023407;28;20475;-62
2021/06/21 03:33:20;;;;;;;3.70;1.77;;;;;;;;;;5034179;28;20451;-62
2021/06/21 03:35:48;;;;;;;2.43;1.50;;;;;;;;;;5033786;28;20453;-63
2021/06/21 03:38:16;;;;;;;4.87;1.73;;;;;;;;;;5034621;28;20444;-61
2021/06/21 03:40:45;;;;;;;3.80;1.67;;;;;;;;;;5034075;28;20530;-62
2021/06/21 03:43:12;;;;;;;3.47;1.70;;;;;;;;;;5034212;28;20459;-61
2021/06/21 03:45:39;;;;;;;2.43;1.57;;;;;;;;;;5033766;28;20827;-62
2021/06/21 03:48:07;;;;;;;3.77;2.23;;;;;;;;;;5035255;28;21071;-63
2021/06/21 03:50:34;;;;;;;4.83;1.73;;;;;;;;;;5037076;28;20471;-62
2021/06/21 03:53:03;;;;;;;3.53;1.90;;;;;;;;;;5037293;28;20444;-63
2021/06/21 03:55:30;;;;;;;3.00;1.70;;;;;;;;;;5036486;28;20459;-62
2021/06/21 03:57:58;;;;;;;3.10;1.50;;;;;;;;;;5024918;28;20445;-63
2021/06/21 04:00:26;;;;;;;3.17;1.50;;;;;;;;;;5018018;28;20485;-62
2021/06/21 04:02:53;;;;;;;6.17;1.70;;;;;;;;;;5023001;28;20459;-63
2021/06/21 04:05:20;;;;;;;2.43;1.50;;;;;;;;;;5038579;28;20452;-62
2021/06/21 04:07:48;;;;;;;3.80;1.73;;;;;;;;;;5037327;28;20484;-63
2021/06/21 04:10:18;;;;;;;3.03;1.60;;;;;;;;;;5035482;28;20505;-62
2021/06/21 04:12:46;;;;;;;4.23;1.50;;;;;;;;;;5033473;28;20463;-62
2021/06/21 04:15:13;;;;;;;4.13;1.63;;;;;;;;;;5032905;28;20452;-62
2021/06/21 04:17:41;;;;;;;3.00;2.40;;;;;;;;;;5033216;28;20445;-60
2021/06/21 04:20:10;;;;;;;3.07;1.53;;;;;;;;;;5033879;28;20465;-61
2021/06/21 04:22:37;;;;;;;3.80;1.67;;;;;;;;;;5033529;28;20828;-61
2021/06/21 04:25:05;;;;;;;2.67;1.60;;;;;;;;;;5033625;28;20456;-62
2021/06/21 04:27:33;;;;;;;3.27;2.00;;;;;;;;;;5032222;28;20476;-62
2021/06/21 04:30:00;;;;;;;6.40;2.13;;;;;;;;;;5033253;28;20479;-62
2021/06/21 04:32:27;;;;;;;3.63;1.60;;;;;;;;;;5025596;28;20454;-62
2021/06/21 04:34:54;;;;;;;4.03;1.60;;;;;;;;;;5013420;28;20449;-63
2021/06/21 04:37:22;;;;;;;5.10;1.97;;;;;;;;;;5012903;28;20472;-61
2021/06/21 04:39:49;;;;;;;3.53;1.83;;;;;;;;;;5013307;28;20473;-61
2021/06/21 04:42:16;;;;;;;3.00;1.37;;;;;;;;;;5013457;28;20449;-62
2021/06/21 04:44:44;;;;;;;5.07;1.90;;;;;;;;;;5013283;28;20537;-63
2021/06/21 04:47:11;;;;;;;4.40;1.20;;;;;;;;;;5012397;28;20489;-61
2021/06/21 04:49:39;;;;;;;6.40;1.50;;;;;;;;;;5014935;28;20476;-62
2021/06/21 04:52:09;;;;;;;3.43;1.33;;;;;;;;;;5013043;28;20816;-62
2021/06/21 04:54:36;;;;;;;4.30;1.30;;;;;;;;;;5023756;28;20461;-62
2021/06/21 04:57:03;;;;;;;3.23;1.33;;;;;;;;;;5032301;28;20453;-62
2021/06/21 04:59:30;;;;;;;3.10;1.20;;;;;;;;;;5032207;28;21022;-62
2021/06/21 05:01:59;;;;;;;2.70;1.10;;;;;;;;;;5033052;28;20444;-62
2021/06/21 05:04:26;;;;;;;3.23;1.60;;;;;;;;;;5033017;28;20459;-59
2021/06/21 05:06:53;;;;;;;4.30;1.27;;;;;;;;;;5031728;28;21022;-60
2021/06/21 05:09:20;;;;;;;2.70;1.30;;;;;;;;;;5032659;28;20468;-61
2021/06/21 05:11:47;;;;;;;7.97;1.10;;;;;;;;;;5032478;28;20940;-60
2021/06/21 05:14:14;;;;;;;2.33;1.00;;;;;;;;;;5032424;28;20448;-59
2021/06/21 05:16:41;;;;;;;2.93;1.30;;;;;;;;;;5031686;28;20451;-60
2021/06/21 05:19:10;;;;;;;2.90;1.07;;;;;;;;;;5032356;28;20450;-59
2021/06/21 05:21:37;;;;;;;5.87;1.47;;;;;;;;;;5032209;28;20448;-60
2021/06/21 05:24:04;;;;;;;5.23;1.50;;;;;;;;;;5029497;28;20474;-65
2021/06/21 05:26:32;;;;;;;5.33;1.70;;;;;;;;;;5011757;28;20486;-59
2021/06/21 05:28:59;;;;;;;4.40;1.60;;;;;;;;;;5031083;28;20445;-60
2021/06/21 05:31:26;;;;;;;3.00;1.53;;;;;;;;;;5032442;28;20448;-60
2021/06/21 05:33:53;;;;;;;4.80;1.90;;;;;;;;;;5032150;28;20936;-60
2021/06/21 05:36:22;;;;;;;3.30;1.10;;;;;;;;;;5031239;28;20459;-60
2021/06/21 05:38:49;;;;;;;3.90;1.13;;;;;;;;;;5032063;28;20453;-61
2021/06/21 05:41:16;;;;;;;2.30;1.40;;;;;;;;;;5032805;28;20451;-59
2021/06/21 05:43:43;;;;;;;2.80;1.83;;;;;;;;;;5031962;28;20971;-64
2021/06/21 05:46:10;;;;;;;1.80;1.10;;;;;;;;;;5031088;28;20478;-64
2021/06/21 05:48:37;;;;;;;3.90;1.37;;;;;;;;;;5022141;28;20499;-67
2021/06/21 05:51:04;;;;;;;2.20;1.27;;;;;;;;;;5051580;28;20845;-66
2021/06/21 05:53:33;;;;;;;3.63;1.30;;;;;;;;;;5049606;28;20483;-67
2021/06/21 05:56:00;;;;;;;4.37;1.60;;;;;;;;;;5040181;28;20493;-66
2021/06/21 05:58:27;;;;;;;2.37;1.10;;;;;;;;;;5032778;28;20955;-66
2021/06/21 06:00:55;;;;;;;2.30;1.20;;;;;;;;;;5033388;28;20500;-66
2021/06/21 06:03:22;;;;;;;1.80;1.50;;;;;;;;;;5034982;28;20472;-67
2021/06/21 06:05:49;;;;;;;2.70;1.53;;;;;;;;;;5045946;28;20474;-66
2021/06/21 06:08:16;;;;;;;1.97;1.20;;;;;;;;;;5044412;28;20998;-66
2021/06/21 06:10:45;;;;;;;2.20;1.40;;;;;;;;;;5045845;28;20473;-68
2021/06/21 06:13:12;;;;;;;1.87;1.13;;;;;;;;;;5038860;28;20472;-66
2021/06/21 06:15:39;;;;;;;1.63;1.00;;;;;;;;;;5046042;28;20464;-67
2021/06/21 06:18:06;;;;;;;2.50;1.10;;;;;;;;;;5031857;28;21092;-66
2021/06/21 06:20:33;;;;;;;2.43;1.27;;;;;;;;;;5034818;28;20484;-67
2021/06/21 06:23:01;;;;;;;2.00;1.50;;;;;;;;;;5047169;28;20474;-66
2021/06/21 06:25:29;;;;;;;2.80;1.33;;;;;;;;;;5050266;28;20459;-67
2021/06/21 06:27:58;;;;;;;2.10;1.20;;;;;;;;;;5044425;28;20487;-67
2021/06/21 06:30:26;;;;;;;1.90;1.33;;;;;;;;;;5050522;28;21049;-66
2021/06/21 06:32:53;;;;;;;3.20;1.60;;;;;;;;;;5049425;28;20468;-66
2021/06/21 06:35:20;;;;;;;2.20;1.13;;;;;;;;;;5049080;28;20467;-68
2021/06/21 06:37:49;;;;;;;2.40;1.30;;;;;;;;;;5031641;28;20459;-63
2021/06/21 06:40:17;;;;;;;2.03;0.90;;;;;;;;;;5039208;28;21043;-64
2021/06/21 06:42:44;;;;;;;1.47;0.83;;;;;;;;;;5047940;28;20456;-64
2021/06/21 06:45:13;;;;;;;2.37;1.20;;;;;;;;;;5052474;28;20450;-64
2021/06/21 06:47:41;;;;;;;2.57;0.87;;;;;;;;;;5038660;28;20480;-65
2021/06/21 06:50:09;;;;;;;2.30;1.00;;;;;;;;;;5035059;28;21284;-64
2021/06/21 06:52:36;;;;;;;1.13;0.57;;;;;;;;;;5040672;28;20526;-64
2021/06/21 06:57:49;;;;;;;2.23;0.80;;;;;;;;;;5021223;28;20821;-65
2021/06/21 07:00:18;;;;;;;1.70;0.90;;;;;;;;;;5034771;28;20482;-67
2021/06/21 07:02:46;;;;;;;2.63;1.83;;;;;;;;;;5034685;28;20484;-68
2021/06/21 07:05:13;;;;;;;4.50;1.33;;;;;;;;;;5034424;28;20456;-68
2021/06/21 07:07:40;;;;;;;2.30;1.00;;;;;;;;;;5034239;28;20484;-64
2021/06/21 07:10:08;;;;;;;2.80;1.20;;;;;;;;;;5033638;28;20476;-64
2021/06/21 07:12:35;;;;;;;2.80;1.40;;;;;;;;;;5035468;28;20467;-64
2021/06/21 07:15:02;;;;;;;2.33;1.07;;;;;;;;;;5033925;28;20956;-64
2021/06/21 07:17:31;;;;;;;3.00;1.00;;;;;;;;;;5023719;28;20453;-64
2021/06/21 07:19:58;;;;;;;4.13;1.10;;;;;;;;;;5026469;28;21028;-64
2021/06/21 07:22:25;;;;;;;2.90;0.90;;;;;;;;;;5034214;28;20445;-64
2021/06/21 07:24:52;;;;;;;1.53;1.10;;;;;;;;;;5033927;28;20452;-64
2021/06/21 07:27:19;;;;;;;1.77;1.00;;;;;;;;;;5033790;28;20476;-64
2021/06/21 07:29:46;;;;;;;1.90;0.77;;;;;;;;;;5033908;28;20479;-64
2021/06/21 07:32:13;;;;;;;1.40;0.90;;;;;;;;;;5034631;28;20454;-64
2021/06/21 07:34:43;;;;;;;2.10;1.10;;;;;;;;;;5033848;28;20476;-61
2021/06/21 07:37:10;;;;;;;3.93;1.57;;;;;;;;;;5033004;28;20476;-61
2021/06/21 07:39:37;;;;;;;2.40;1.10;;;;;;;;;;5033000;28;20473;-64
2021/06/21 07:42:04;;;;;;;3.20;1.10;;;;;;;;;;5032401;28;20971;-64
2021/06/21 07:44:34;;;;;;;2.60;0.90;;;;;;;;;;5032439;28;20480;-64
2021/06/21 07:47:01;;;;;;;1.50;0.70;;;;;;;;;;5032698;28;20538;-64
2021/06/21 07:49:28;;;;;;;2.27;0.90;;;;;;;;;;5036618;28;20468;-64
2021/06/21 07:51:57;;;;;;;1.83;1.27;;;;;;;;;;5032675;28;20825;-65
2021/06/21 07:54:24;;;;;;;2.03;0.90;;;;;;;;;;5036952;28;20967;-64
2021/06/21 07:56:52;;;;;;;3.70;1.03;;;;;;;;;;5013964;28;20450;-61
2021/06/21 07:59:19;;;;;;;1.47;0.80;;;;;;;;;;5031726;28;20483;-68
2021/06/21 08:01:46;;;;;;;1.43;0.80;;;;;;;;;;5031424;28;20452;-68
2021/06/21 08:04:13;;;;;;;1.60;0.90;;;;;;;;;;5033458;28;20452;-68
2021/06/21 08:06:40;;;;;;;3.23;1.00;;;;;;;;;;5033896;28;20456;-68
2021/06/21 08:09:09;;;;;;;1.10;0.60;;;;;;;;;;5051494;28;20486;-69
2021/06/21 08:11:36;;;;;;;1.97;0.87;;;;;;;;;;5038587;28;20465;-68
2021/06/21 08:14:03;;;;;;;3.97;1.13;;;;;;;;;;5033662;28;20459;-68
2021/06/21 08:16:31;;;;;;;2.43;0.70;;;;;;;;;;5032106;28;20453;-67
2021/06/21 08:18:59;;;;;;;4.10;1.27;;;;;;;;;;5032877;28;20452;-67
2021/06/21 08:21:26;;;;;;;3.10;1.13;;;;;;;;;;5032548;28;20507;-66
2021/06/21 08:23:54;;;;;;;4.80;1.57;;;;;;;;;;5033480;28;20445;-67
2021/06/21 08:26:23;;;;;;;3.93;1.40;;;;;;;;;;5031875;28;20501;-66
2021/06/21 08:28:50;;;;;;;3.00;1.30;;;;;;;;;;5032849;28;20488;-67
2021/06/21 08:31:17;;;;;;;5.70;1.20;;;;;;;;;;5032289;28;20826;-67
2021/06/21 08:33:44;;;;;;;9.23;1.70;;;;;;;;;;5033439;28;20472;-67
2021/06/21 08:36:11;;;;;;;12.17;2.40;;;;;;;;;;5031611;28;20455;-67
2021/06/21 08:38:39;;;;;;;12.10;1.63;;;;;;;;;;5032823;28;20954;-67
2021/06/21 08:41:06;;;;;;;3.47;1.07;;;;;;;;;;5032617;28;20484;-66
2021/06/21 08:43:35;;;;;;;3.90;1.20;;;;;;;;;;5033038;28;20448;-66
2021/06/21 08:46:02;;;;;;;5.50;1.67;;;;;;;;;;5031865;28;20456;-66
2021/06/21 08:48:30;;;;;;;6.90;1.70;;;;;;;;;;5032620;28;20484;-67
2021/06/21 08:50:58;;;;;;;6.20;1.10;;;;;;;;;;5023978;28;20541;-66
2021/06/21 08:53:25;;;;;;;10.67;1.83;;;;;;;;;;5051015;28;20955;-67
2021/06/21 08:55:52;;;;;;;5.73;1.30;;;;;;;;;;5036980;28;20453;-66
2021/06/21 08:58:19;;;;;;;2.10;1.00;;;;;;;;;;5032151;28;20459;-66
2021/06/21 09:00:48;;;;;;;1.90;0.90;;;;;;;;;;5031595;28;20477;-67
2021/06/21 09:03:16;;;;;;;2.23;1.10;;;;;;;;;;5032563;28;20797;-67
2021/06/21 09:05:43;;;;;;;2.07;0.80;;;;;;;;;;5030809;28;20979;-66
2021/06/21 09:08:11;;;;;;;1.63;0.67;;;;;;;;;;5033338;28;20491;-66
2021/06/21 09:10:39;;;;;;;2.53;0.90;;;;;;;;;;5030370;28;20468;-66
2021/06/21 09:13:08;;;;;;;1.93;0.90;;;;;;;;;;5012430;28;20933;-67
2021/06/21 09:15:36;;;;;;;1.20;0.87;;;;;;;;;;5019408;28;20475;-66
2021/06/21 09:18:27;;;;;;;1.63;0.90;;;;;;;;;;5031402;28;20813;-66
2021/06/21 09:21:09;;;;;;;1.90;1.10;;;;;;;;;;5031839;28;20476;-66
2021/06/21 09:23:36;;;;;;;1.80;0.70;;;;;;;;;;5032381;28;20478;-66
2021/06/21 09:26:16;;;;;;;1.20;0.80;;;;;;;;;;5027089;28;20450;-66
2021/06/21 09:28:43;;;;;;;3.20;0.80;;;;;;;;;;5026824;28;20469;-65
2021/06/21 09:31:10;;;;;;;1.50;0.87;;;;;;;;;;5035180;28;20469;-65
2021/06/21 09:33:38;;;;;;;3.43;0.90;;;;;;;;;;5030956;28;20455;-65
2021/06/21 09:36:06;;;;;;;3.70;1.30;;;;;;;;;;5031197;28;20444;-65
2021/06/21 09:38:34;;;;;;;2.83;1.00;;;;;;;;;;5031329;28;20448;-65
2021/06/21 09:41:02;;;;;;;2.13;0.80;;;;;;;;;;5031750;28;20472;-66
2021/06/21 09:43:30;;;;;;;6.20;0.90;;;;;;;;;;5030247;28;20460;-63
2021/06/21 09:46:04;;;;;;;3.00;0.70;;;;;;;;;;5030793;28;20505;-63
2021/06/21 09:48:31;;;;;;;1.57;0.77;;;;;;;;;;5031042;28;20488;-63
2021/06/21 09:51:00;;;;;;;1.63;0.80;;;;;;;;;;5011934;28;20523;-64
2021/06/21 09:53:27;;;;;;;1.33;1.00;;;;;;;;;;5029564;28;20464;-63
2021/06/21 09:55:54;;;;;;;2.23;0.70;;;;;;;;;;5050053;28;20454;-63
2021/06/21 09:58:21;;;;;;;1.70;0.60;;;;;;;;;;5051376;28;20808;-63
2021/06/21 10:00:50;;;;;;;1.10;0.50;;;;;;;;;;5030460;28;21026;-64
2021/06/21 10:03:18;;;;;;;1.40;0.77;;;;;;;;;;5031422;28;20444;-63
2021/06/21 10:05:46;;;;;;;1.73;0.60;;;;;;;;;;5030806;28;20444;-63
2021/06/21 10:08:16;;;;;;;1.10;0.50;;;;;;;;;;5031606;28;20520;-63
2021/06/21 10:10:44;;;;;;;1.00;0.50;;;;;;;;;;5030587;28;20477;-63
2021/06/21 10:13:12;;;;;;;1.87;0.50;;;;;;;;;;5030254;28;20441;-63
2021/06/21 10:15:40;;;;;;;1.63;0.60;;;;;;;;;;5030106;28;20452;-63
2021/06/21 10:18:08;;;;;;;1.50;0.60;;;;;;;;;;5031243;28;20447;-64
2021/06/21 10:20:35;;;;;;;1.10;0.50;;;;;;;;;;5021736;28;20875;-64
2021/06/21 10:23:03;;;;;;;1.67;0.87;;;;;;;;;;5021998;28;20452;-64
2021/06/21 10:25:32;;;;;;;1.53;0.77;;;;;;;;;;5050775;28;20447;-63
2021/06/21 10:28:01;;;;;;;1.00;0.50;;;;;;;;;;5050428;28;20552;-63
2021/06/21 10:30:29;;;;;;;3.47;0.80;;;;;;;;;;5051332;28;20494;-64
2021/06/21 10:32:57;;;;;;;1.30;0.63;;;;;;;;;;5040078;28;20460;-64
2021/06/21 10:35:30;;;;;;;1.40;0.60;;;;;;;;;;5030916;28;20479;-63
2021/06/21 10:37:59;;;;;;;1.40;0.70;;;;;;;;;;5031212;28;21008;-63
2021/06/21 10:40:26;;;;;;;0.90;0.50;;;;;;;;;;5031205;28;20499;-63
2021/06/21 10:42:55;;;;;;;1.00;0.60;;;;;;;;;;5031192;28;20455;-63
2021/06/21 10:45:22;;;;;;;1.30;0.50;;;;;;;;;;5030314;28;20929;-63
2021/06/21 10:47:50;;;;;;;0.90;0.57;;;;;;;;;;5030831;28;20826;-63
2021/06/21 10:50:27;;;;;;;1.10;0.57;;;;;;;;;;5030595;28;20472;-63
2021/06/21 10:52:59;;;;;;;1.63;0.60;;;;;;;;;;5024964;28;20456;-63
2021/06/21 10:55:38;;;;;;;1.00;0.50;;;;;;;;;;5044533;28;20452;-63
2021/06/21 10:58:08;;;;;;;1.13;0.70;;;;;;;;;;5050871;28;20538;-63
2021/06/21 11:00:36;;;;;;;0.90;0.60;;;;;;;;;;5030665;28;20995;-66
2021/06/21 11:03:04;;;;;;;0.90;0.60;;;;;;;;;;5030483;28;20457;-63
2021/06/21 11:05:37;;;;;;;1.20;0.50;;;;;;;;;;5036061;22;20502;-74
2021/06/21 11:08:14;;;;;;;1.10;0.80;;;;;;;;;;5048737;28;20845;-74
2021/06/21 11:10:41;;;;;;;1.00;0.60;;;;;;;;;;5049554;28;20483;-74
2021/06/21 11:13:23;;;;;;;1.17;0.63;;;;;;;;;;5052138;28;20463;-74
2021/06/21 11:16:05;;;;;;;0.97;0.50;;;;;;;;;;5050789;28;20467;-74
2021/06/21 11:18:33;;;;;;;1.40;0.63;;;;;;;;;;5051431;28;20460;-74
2021/06/21 11:21:12;;;;;;;0.90;0.70;;;;;;;;;;5051469;28;20462;-74
2021/06/21 11:23:40;;;;;;;1.20;0.63;;;;;;;;;;5048291;28;20447;-74
2021/06/21 11:26:07;;;;;;;1.20;0.60;;;;;;;;;;5052856;28;20472;-74
2021/06/21 11:28:35;;;;;;;1.50;0.90;;;;;;;;;;5053672;28;21256;-74
2021/06/21 11:31:17;;;;;;;1.10;0.60;;;;;;;;;;5053952;28;20459;-74
2021/06/21 11:33:52;;;;;;;1.00;0.70;;;;;;;;;;5050742;28;20472;-74
2021/06/21 11:36:34;;;;;;;3.07;0.90;;;;;;;;;;5052004;28;20472;-74
2021/06/21 11:39:15;;;;;;;1.20;0.63;;;;;;;;;;5053919;28;20804;-74
2021/06/21 11:41:52;;;;;;;1.70;0.80;;;;;;;;;;5053212;28;20459;-74
2021/06/21 11:44:45;;;;;;;1.00;0.70;;;;;;;;;;5043078;28;20452;-74
2021/06/21 11:47:19;;;;;;;1.90;0.80;;;;;;;;;;5053113;28;20468;-74
2021/06/21 11:49:48;;;;;;;2.90;0.80;;;;;;;;;;5054310;28;20530;-74
2021/06/21 11:52:17;;;;;;;1.13;0.60;;;;;;;;;;5054304;28;20456;-74
2021/06/21 11:54:44;;;;;;;1.13;0.80;;;;;;;;;;5063167;28;20454;-74
2021/06/21 11:57:12;;;;;;;1.73;0.80;;;;;;;;;;5052637;28;20998;-74
2021/06/21 11:59:40;;;;;;;1.80;1.00;;;;;;;;;;5052841;28;20458;-74
2021/06/21 12:02:08;;;;;;;1.00;0.80;;;;;;;;;;5051455;28;20958;-74
2021/06/21 12:04:36;;;;;;;1.10;0.80;;;;;;;;;;5054028;28;20458;-74
2021/06/21 12:07:05;;;;;;;1.40;1.00;;;;;;;;;;5052577;28;20573;-73
2021/06/21 12:09:32;;;;;;;1.37;1.03;;;;;;;;;;5053889;28;20501;-74
2021/06/21 12:11:59;;;;;;;2.23;0.90;;;;;;;;;;5052881;28;20447;-74
2021/06/21 12:14:27;;;;;;;0.90;0.60;;;;;;;;;;5053961;28;20443;-74
2021/06/21 12:17:02;;;;;;;1.37;0.80;;;;;;;;;;5052864;28;20478;-74
2021/06/21 12:19:30;;;;;;;1.10;0.87;;;;;;;;;;5054018;28;20443;-74
2021/06/21 12:21:57;;;;;;;1.83;1.03;;;;;;;;;;5053137;28;20466;-73
2021/06/21 12:24:26;;;;;;;1.10;1.00;;;;;;;;;;5053827;28;20448;-74
2021/06/21 12:26:55;;;;;;;1.20;0.90;;;;;;;;;;5052418;28;20478;-74
2021/06/21 12:29:29;;;;;;;1.53;1.13;;;;;;;;;;5053643;28;20490;-74
2021/06/21 12:31:58;;;;;;;6.63;1.03;;;;;;;;;;5053277;28;21083;-74
2021/06/21 12:34:42;;;;;;;1.57;0.90;;;;;;;;;;5053844;28;20546;-74
2021/06/21 12:37:13;;;;;;;2.07;0.93;;;;;;;;;;5050874;28;20563;-74
2021/06/21 12:39:42;;;;;;;2.90;1.77;;;;;;;;;;5053424;28;20454;-74
2021/06/21 12:42:10;;;;;;;1.03;0.80;;;;;;;;;;5053443;28;20455;-74
2021/06/21 12:44:37;;;;;;;1.40;1.20;;;;;;;;;;5053644;28;20822;-74
2021/06/21 12:47:14;;;;;;;1.93;0.90;;;;;;;;;;5052522;28;20468;-74
2021/06/21 12:49:41;;;;;;;1.20;0.80;;;;;;;;;;5052764;28;20483;-74
2021/06/21 12:52:09;;;;;;;1.00;0.80;;;;;;;;;;5053642;28;20487;-74
2021/06/21 12:54:36;;;;;;;1.93;0.90;;;;;;;;;;5061506;28;20472;-74
2021/06/21 12:57:05;;;;;;;3.00;1.10;;;;;;;;;;5057444;28;20476;-74
2021/06/21 12:59:33;;;;;;;1.00;0.80;;;;;;;;;;5052776;28;20448;-73
2021/06/21 13:02:02;;;;;;;1.10;0.70;;;;;;;;;;5053078;28;20785;-74
2021/06/21 13:04:30;;;;;;;1.10;1.00;;;;;;;;;;5053698;28;20447;-74
2021/06/21 13:06:57;;;;;;;1.50;1.03;;;;;;;;;;5051753;28;20488;-74
2021/06/21 13:09:29;;;;;;;1.10;0.80;;;;;;;;;;5053172;28;20491;-74
2021/06/21 13:11:58;;;;;;;2.90;0.80;;;;;;;;;;5053449;28;20539;-74
2021/06/21 13:14:31;;;;;;;1.63;1.00;;;;;;;;;;5052539;28;20456;-74
2021/06/21 13:17:14;;;;;;;1.20;0.80;;;;;;;;;;5052038;28;20476;-74
2021/06/21 13:19:51;;;;;;;1.27;0.90;;;;;;;;;;5053435;28;20440;-74
2021/06/21 13:22:29;;;;;;;0.90;0.63;;;;;;;;;;5052554;28;20454;-74
2021/06/21 13:24:56;;;;;;;1.20;0.83;;;;;;;;;;5053463;28;20458;-74
2021/06/21 13:27:24;;;;;;;1.57;0.77;;;;;;;;;;5051169;28;20467;-74
2021/06/21 13:29:53;;;;;;;1.10;0.90;;;;;;;;;;5053240;28;20990;-74
2021/06/21 13:32:22;;;;;;;1.53;0.80;;;;;;;;;;5052715;28;20951;-74
2021/06/21 13:34:49;;;;;;;1.03;0.80;;;;;;;;;;5052660;28;20474;-74
2021/06/21 13:37:22;;;;;;;1.37;0.90;;;;;;;;;;5051396;28;20463;-75
2021/06/21 13:39:53;;;;;;;1.97;0.70;;;;;;;;;;5050153;28;20947;-73
2021/06/21 13:42:29;;;;;;;1.47;0.97;;;;;;;;;;5040097;28;20448;-74
2021/06/21 13:45:01;;;;;;;1.90;0.83;;;;;;;;;;5051519;28;20451;-73
2021/06/21 13:47:38;;;;;;;1.87;0.83;;;;;;;;;;5051746;28;20535;-73
2021/06/21 13:50:07;;;;;;;1.63;0.60;;;;;;;;;;5049982;28;20490;-73
2021/06/21 13:52:38;;;;;;;1.03;0.80;;;;;;;;;;5050373;28;20998;-71
2021/06/21 13:55:06;;;;;;;1.37;1.00;;;;;;;;;;5064745;28;20944;-71
2021/06/21 13:57:40;;;;;;;1.53;0.90;;;;;;;;;;5051647;28;20468;-71
2021/06/21 14:00:10;;;;;;;3.43;1.10;;;;;;;;;;5051523;28;20558;-71
2021/06/21 14:02:39;;;;;;;3.87;1.40;;;;;;;;;;5051491;28;20474;-71
2021/06/21 14:05:07;;;;;;;1.37;1.00;;;;;;;;;;5051837;28;20513;-71
2021/06/21 14:07:35;;;;;;;1.20;0.90;;;;;;;;;;5051607;28;20845;-71
2021/06/21 14:10:02;;;;;;;5.23;1.10;;;;;;;;;;5050415;28;20484;-71
2021/06/21 14:12:29;;;;;;;1.43;1.17;;;;;;;;;;5051932;28;20471;-71
2021/06/21 14:14:56;;;;;;;3.63;1.10;;;;;;;;;;5049809;28;20463;-71
2021/06/21 14:17:25;;;;;;;1.30;1.00;;;;;;;;;;5052128;28;20539;-72
2021/06/21 14:19:53;;;;;;;1.83;0.60;;;;;;;;;;5049756;28;20487;-72
2021/06/21 14:22:20;;;;;;;1.63;1.30;;;;;;;;;;5052271;28;20493;-71
2021/06/21 14:24:47;;;;;;;2.73;0.87;;;;;;;;;;5051148;28;20472;-72
2021/06/21 14:27:15;;;;;;;1.17;0.77;;;;;;;;;;5047946;28;20479;-73
2021/06/21 14:29:42;;;;;;;1.30;0.70;;;;;;;;;;5050211;28;20871;-71
2021/06/21 14:32:09;;;;;;;1.30;0.63;;;;;;;;;;5052962;28;20535;-72
2021/06/21 14:34:38;;;;;;;0.90;0.70;;;;;;;;;;5051325;28;20459;-72
2021/06/21 14:37:05;;;;;;;1.00;0.80;;;;;;;;;;5051431;28;20491;-72
2021/06/21 14:39:33;;;;;;;0.80;0.50;;;;;;;;;;5046041;28;20468;-71
2021/06/21 14:42:00;;;;;;;1.20;0.73;;;;;;;;;;5043292;28;20468;-71
2021/06/21 14:44:27;;;;;;;1.57;0.90;;;;;;;;;;5049890;28;20459;-72
2021/06/21 14:46:54;;;;;;;0.90;0.70;;;;;;;;;;5049602;28;20486;-69
2021/06/21 14:49:21;;;;;;;1.87;1.00;;;;;;;;;;5050360;28;20468;-73
2021/06/21 14:51:50;;;;;;;1.90;0.93;;;;;;;;;;5051218;28;20938;-72
2021/06/21 14:54:18;;;;;;;2.03;0.90;;;;;;;;;;5057243;28;20463;-69